Time;durP1;ratioP1;P1;durP2;ratioP2;P2;SDS_P1;SDS_P2;PMS_P1;PMS_P2;Temp;Humidity;BMP_temperature;BMP_pressure;BME280_temperature;BME280_humidity;BME280_pressure;Samples;Min_cycle;Max_cycle;Signal;HPM_P1;HPM_P2
2022/05/06 00:02:23;;;;;;;15.13;3.78;;;;;;;;;;5095509;28;20572;-69
2022/05/06 00:04:51;;;;;;;16.70;3.38;;;;;;;;;;5095028;28;20221;-69
2022/05/06 00:07:19;;;;;;;16.73;3.78;;;;;;;;;;5095000;28;20198;-69
2022/05/06 00:09:46;;;;;;;15.10;3.50;;;;;;;;;;5095161;28;20198;-69
2022/05/06 00:12:17;;;;;;;17.73;4.00;;;;;;;;;;5094987;28;20611;-69
2022/05/06 00:14:47;;;;;;;16.58;4.35;;;;;;;;;;5095096;28;20230;-69
2022/05/06 00:17:14;;;;;;;23.40;4.22;;;;;;;;;;5094613;28;20192;-69
2022/05/06 00:19:43;;;;;;;15.70;4.10;;;;;;;;;;5095089;28;20202;-69
2022/05/06 00:22:10;;;;;;;19.02;5.28;;;;;;;;;;5094855;28;20263;-69
2022/05/06 00:24:38;;;;;;;14.07;3.53;;;;;;;;;;5094478;28;20231;-69
2022/05/06 00:27:05;;;;;;;18.33;4.18;;;;;;;;;;5095016;28;20205;-69
2022/05/06 00:29:33;;;;;;;17.05;3.67;;;;;;;;;;5094590;28;20577;-69
2022/05/06 00:32:02;;;;;;;16.67;4.22;;;;;;;;;;5094687;28;20256;-69
2022/05/06 00:34:30;;;;;;;15.23;3.72;;;;;;;;;;5094511;28;20200;-69
2022/05/06 00:36:57;;;;;;;15.68;3.00;;;;;;;;;;5094455;28;20206;-69
2022/05/06 00:39:25;;;;;;;14.20;3.13;;;;;;;;;;5092897;28;20198;-69
2022/05/06 00:41:54;;;;;;;16.05;3.72;;;;;;;;;;5094349;28;20198;-69
2022/05/06 00:44:22;;;;;;;19.05;3.13;;;;;;;;;;5094783;28;20556;-69
2022/05/06 00:46:52;;;;;;;16.42;3.85;;;;;;;;;;5094836;28;20571;-69
2022/05/06 00:49:21;;;;;;;18.15;3.70;;;;;;;;;;5094081;28;20201;-69
2022/05/06 00:51:51;;;;;;;16.67;3.45;;;;;;;;;;5094277;28;20229;-69
2022/05/06 00:54:21;;;;;;;14.50;3.17;;;;;;;;;;5094598;28;20193;-69
2022/05/06 00:56:48;;;;;;;17.27;4.00;;;;;;;;;;5094622;28;20278;-69
2022/05/06 00:59:16;;;;;;;14.68;3.50;;;;;;;;;;5094141;28;20199;-69
2022/05/06 01:01:43;;;;;;;19.45;3.97;;;;;;;;;;5094198;28;20202;-69
2022/05/06 01:04:11;;;;;;;15.45;4.00;;;;;;;;;;5093753;28;20217;-69
2022/05/06 01:06:41;;;;;;;17.13;4.40;;;;;;;;;;5094215;28;20578;-69
2022/05/06 01:09:09;;;;;;;17.10;3.60;;;;;;;;;;5093930;28;20201;-69
2022/05/06 01:11:36;;;;;;;18.10;4.30;;;;;;;;;;5093673;28;20197;-69
2022/05/06 01:14:04;;;;;;;14.60;3.72;;;;;;;;;;5093847;28;20273;-69
2022/05/06 01:16:34;;;;;;;15.38;3.50;;;;;;;;;;5093646;28;20655;-69
2022/05/06 01:19:02;;;;;;;15.00;4.20;;;;;;;;;;5093595;28;20659;-69
2022/05/06 01:21:32;;;;;;;15.60;4.20;;;;;;;;;;5093768;28;20197;-69
2022/05/06 01:24:02;;;;;;;13.73;3.00;;;;;;;;;;5093477;28;20664;-69
2022/05/06 01:26:44;;;;;;;16.90;4.05;;;;;;;;;;5093585;28;20198;-69
2022/05/06 01:29:12;;;;;;;15.20;3.17;;;;;;;;;;5093132;28;20736;-69
2022/05/06 01:31:39;;;;;;;16.83;3.80;;;;;;;;;;5093305;28;20198;-69
2022/05/06 01:34:09;;;;;;;16.38;4.32;;;;;;;;;;5093224;28;20196;-69
2022/05/06 01:36:37;;;;;;;17.38;4.32;;;;;;;;;;5093494;28;20198;-69
2022/05/06 01:39:06;;;;;;;15.95;3.30;;;;;;;;;;5093313;28;20192;-69
2022/05/06 01:41:37;;;;;;;18.05;3.83;;;;;;;;;;5092847;28;20580;-69
2022/05/06 01:44:07;;;;;;;14.02;3.17;;;;;;;;;;5093582;28;20294;-69
2022/05/06 01:46:35;;;;;;;14.98;3.38;;;;;;;;;;5093240;28;20203;-68
2022/05/06 01:49:03;;;;;;;14.90;3.67;;;;;;;;;;5092964;28;20271;-69
2022/05/06 01:51:31;;;;;;;16.92;3.85;;;;;;;;;;5092411;28;20204;-69
2022/05/06 01:53:59;;;;;;;16.17;4.07;;;;;;;;;;5092928;28;20222;-69
2022/05/06 01:56:28;;;;;;;13.55;3.40;;;;;;;;;;5092844;28;20203;-69
2022/05/06 01:58:55;;;;;;;15.48;4.00;;;;;;;;;;5092857;28;20685;-69
2022/05/06 02:01:23;;;;;;;13.95;3.10;;;;;;;;;;5092938;28;20198;-69
2022/05/06 02:06:35;;;;;;;14.48;3.42;;;;;;;;;;5092804;28;20198;-69
2022/05/06 02:09:03;;;;;;;15.48;4.00;;;;;;;;;;5092722;28;20201;-69
2022/05/06 02:11:33;;;;;;;14.98;3.53;;;;;;;;;;5092606;28;20284;-69
2022/05/06 02:14:01;;;;;;;17.13;3.13;;;;;;;;;;5092375;28;20230;-69
2022/05/06 02:16:29;;;;;;;15.00;3.83;;;;;;;;;;5092515;28;20204;-68
2022/05/06 02:18:57;;;;;;;18.65;4.25;;;;;;;;;;5092497;28;20230;-69
2022/05/06 02:21:24;;;;;;;17.00;3.83;;;;;;;;;;5092257;28;20197;-69
2022/05/06 02:23:51;;;;;;;16.25;4.32;;;;;;;;;;5092088;28;20233;-69
2022/05/06 02:26:19;;;;;;;16.65;4.80;;;;;;;;;;5092692;28;20202;-69
2022/05/06 02:28:50;;;;;;;14.35;3.53;;;;;;;;;;5092486;28;20199;-68
2022/05/06 02:34:02;;;;;;;15.27;3.90;;;;;;;;;;5092291;28;20283;-69
2022/05/06 02:36:29;;;;;;;14.57;3.58;;;;;;;;;;5092288;28;20198;-69
2022/05/06 02:38:57;;;;;;;14.90;3.78;;;;;;;;;;5092429;28;20208;-69
2022/05/06 02:41:24;;;;;;;15.82;3.70;;;;;;;;;;5091863;28;20622;-69
2022/05/06 02:43:53;;;;;;;14.95;3.55;;;;;;;;;;5092308;28;20210;-68
2022/05/06 02:46:21;;;;;;;13.20;3.03;;;;;;;;;;5092072;28;20238;-69
2022/05/06 02:48:48;;;;;;;20.08;3.78;;;;;;;;;;5092026;28;20201;-69
2022/05/06 02:51:15;;;;;;;14.90;3.95;;;;;;;;;;5091710;28;20195;-69
2022/05/06 02:53:43;;;;;;;17.00;3.47;;;;;;;;;;5092175;28;20311;-69
2022/05/06 02:56:10;;;;;;;14.00;3.25;;;;;;;;;;5092152;28;20203;-68
2022/05/06 02:58:38;;;;;;;15.63;3.67;;;;;;;;;;5091832;28;20206;-69
2022/05/06 03:01:07;;;;;;;15.90;3.90;;;;;;;;;;5091437;28;20197;-69
2022/05/06 03:03:34;;;;;;;15.23;3.20;;;;;;;;;;5091264;28;20598;-69
2022/05/06 03:06:02;;;;;;;14.27;4.07;;;;;;;;;;5091973;28;20222;-69
2022/05/06 03:08:29;;;;;;;20.70;3.95;;;;;;;;;;5091839;28;20569;-69
2022/05/06 03:10:56;;;;;;;15.68;3.90;;;;;;;;;;5091801;28;20222;-68
2022/05/06 03:13:24;;;;;;;16.05;3.83;;;;;;;;;;5091356;28;20224;-69
2022/05/06 03:15:52;;;;;;;15.75;3.60;;;;;;;;;;5091897;28;20200;-68
2022/05/06 03:18:21;;;;;;;16.90;3.58;;;;;;;;;;5092054;28;20196;-68
2022/05/06 03:20:49;;;;;;;15.50;3.90;;;;;;;;;;5091604;28;20200;-68
2022/05/06 03:23:17;;;;;;;13.73;3.45;;;;;;;;;;5091433;28;20237;-69
2022/05/06 03:25:44;;;;;;;17.30;4.05;;;;;;;;;;5091759;28;20287;-69
2022/05/06 03:28:12;;;;;;;15.55;3.33;;;;;;;;;;5091843;28;20203;-69
2022/05/06 03:30:44;;;;;;;16.92;3.80;;;;;;;;;;5091795;28;20198;-68
2022/05/06 03:33:13;;;;;;;16.00;4.00;;;;;;;;;;5091434;28;20284;-69
2022/05/06 03:35:43;;;;;;;15.57;4.28;;;;;;;;;;5091923;28;20201;-69
2022/05/06 03:38:10;;;;;;;16.55;4.43;;;;;;;;;;5091482;28;20198;-69
2022/05/06 03:40:38;;;;;;;15.98;3.50;;;;;;;;;;5091515;28;20208;-69
2022/05/06 03:43:05;;;;;;;16.08;4.18;;;;;;;;;;5091594;28;20213;-69
2022/05/06 03:45:32;;;;;;;16.42;4.28;;;;;;;;;;5091396;28;20196;-69
2022/05/06 03:48:00;;;;;;;15.55;3.60;;;;;;;;;;5091636;28;20215;-69
2022/05/06 03:53:16;;;;;;;15.15;4.05;;;;;;;;;;5091264;28;20230;-69
2022/05/06 03:55:44;;;;;;;13.52;3.20;;;;;;;;;;5092288;28;20196;-69
2022/05/06 03:58:11;;;;;;;14.23;3.30;;;;;;;;;;5091311;28;20654;-69
2022/05/06 04:00:40;;;;;;;14.20;3.00;;;;;;;;;;5091388;28;20224;-69
2022/05/06 04:03:07;;;;;;;12.68;2.92;;;;;;;;;;5091192;28;20226;-69
2022/05/06 04:05:35;;;;;;;13.60;3.00;;;;;;;;;;5091386;28;20201;-69
2022/05/06 04:08:02;;;;;;;15.63;3.77;;;;;;;;;;5091465;28;20430;-69
2022/05/06 04:10:31;;;;;;;18.13;3.30;;;;;;;;;;5091324;28;20528;-69
2022/05/06 04:12:59;;;;;;;14.53;2.93;;;;;;;;;;5092322;28;20924;-69
2022/05/06 04:15:26;;;;;;;13.70;2.83;;;;;;;;;;5094588;28;20445;-69
2022/05/06 04:17:53;;;;;;;18.37;2.70;;;;;;;;;;5094640;28;20947;-69
2022/05/06 04:25:53;;;;;;;14.10;2.70;;;;;;;;;;5094915;28;20425;-69
2022/05/06 04:28:21;;;;;;;18.57;2.90;;;;;;;;;;5094439;28;20821;-70
2022/05/06 04:30:48;;;;;;;14.43;3.03;;;;;;;;;;5094718;28;20446;-70
2022/05/06 04:33:15;;;;;;;17.40;3.33;;;;;;;;;;5094135;28;20484;-70
2022/05/06 04:35:43;;;;;;;13.23;2.97;;;;;;;;;;5094382;28;20977;-70
2022/05/06 04:38:11;;;;;;;16.07;3.20;;;;;;;;;;5094477;28;20446;-70
2022/05/06 04:40:38;;;;;;;17.10;2.80;;;;;;;;;;5094321;28;20473;-70
2022/05/06 04:43:08;;;;;;;14.00;2.63;;;;;;;;;;5094270;28;20966;-70
2022/05/06 04:45:38;;;;;;;14.00;2.60;;;;;;;;;;5094631;28;20438;-70
2022/05/06 04:48:06;;;;;;;13.40;2.50;;;;;;;;;;5094158;28;20452;-70
2022/05/06 04:50:33;;;;;;;14.30;2.80;;;;;;;;;;5094530;28;20474;-70
2022/05/06 04:53:01;;;;;;;13.37;2.37;;;;;;;;;;5094129;28;20485;-70
2022/05/06 04:55:28;;;;;;;12.67;2.80;;;;;;;;;;5093949;28;20434;-70
2022/05/06 04:57:56;;;;;;;14.50;2.70;;;;;;;;;;5094347;28;20446;-70
2022/05/06 05:00:25;;;;;;;15.87;2.80;;;;;;;;;;5094102;28;20438;-70
2022/05/06 05:02:53;;;;;;;14.10;2.87;;;;;;;;;;5093947;28;20444;-70
2022/05/06 05:05:21;;;;;;;14.30;2.50;;;;;;;;;;5093685;28;20443;-70
2022/05/06 05:07:48;;;;;;;13.10;2.33;;;;;;;;;;5093671;28;20950;-70
2022/05/06 05:10:16;;;;;;;14.40;2.87;;;;;;;;;;5093837;28;20440;-70
2022/05/06 05:12:43;;;;;;;13.93;2.40;;;;;;;;;;5093606;28;20440;-70
2022/05/06 05:15:11;;;;;;;14.40;3.40;;;;;;;;;;5093625;28;20466;-70
2022/05/06 05:17:41;;;;;;;14.30;2.73;;;;;;;;;;5093824;28;20516;-70
2022/05/06 05:20:09;;;;;;;15.00;2.90;;;;;;;;;;5093533;28;20442;-70
2022/05/06 05:22:37;;;;;;;14.37;3.10;;;;;;;;;;5093208;28;20434;-70
2022/05/06 05:25:05;;;;;;;15.10;3.00;;;;;;;;;;5092673;28;20441;-70
2022/05/06 05:27:33;;;;;;;14.13;2.80;;;;;;;;;;5093238;28;20441;-70
2022/05/06 05:30:01;;;;;;;19.93;3.20;;;;;;;;;;5093447;28;20443;-70
2022/05/06 05:32:28;;;;;;;15.93;2.77;;;;;;;;;;5093471;28;20452;-70
2022/05/06 05:34:58;;;;;;;14.27;3.37;;;;;;;;;;5093250;28;20902;-70
2022/05/06 05:37:25;;;;;;;13.53;2.57;;;;;;;;;;5093173;28;20532;-71
2022/05/06 05:39:52;;;;;;;13.87;2.80;;;;;;;;;;5093497;28;20438;-71
2022/05/06 05:42:21;;;;;;;14.60;2.83;;;;;;;;;;5093236;28;20475;-71
2022/05/06 05:50:21;;;;;;;14.33;2.83;;;;;;;;;;5093331;28;21075;-71
2022/05/06 05:52:48;;;;;;;18.97;3.30;;;;;;;;;;5093074;28;20445;-70
2022/05/06 05:55:18;;;;;;;14.57;2.87;;;;;;;;;;5092720;28;20496;-71
2022/05/06 05:57:46;;;;;;;14.83;2.87;;;;;;;;;;5092726;28;20954;-70
2022/05/06 06:00:14;;;;;;;14.30;2.77;;;;;;;;;;5092889;28;20440;-70
2022/05/06 06:02:42;;;;;;;16.13;3.10;;;;;;;;;;5092814;28;20533;-70
2022/05/06 06:05:09;;;;;;;14.73;2.43;;;;;;;;;;5092728;28;20451;-70
2022/05/06 06:07:39;;;;;;;15.60;2.60;;;;;;;;;;5092775;28;20442;-70
2022/05/06 06:10:08;;;;;;;14.37;2.50;;;;;;;;;;5092592;28;20440;-71
2022/05/06 06:12:35;;;;;;;15.80;3.00;;;;;;;;;;5092645;28;20816;-70
2022/05/06 06:15:03;;;;;;;14.90;3.00;;;;;;;;;;5092363;28;20484;-70
2022/05/06 06:17:30;;;;;;;13.77;2.97;;;;;;;;;;5092245;28;20534;-70
2022/05/06 06:19:58;;;;;;;15.53;3.20;;;;;;;;;;5092657;28;20892;-70
2022/05/06 06:22:26;;;;;;;19.00;3.47;;;;;;;;;;5092556;28;20471;-71
2022/05/06 06:24:55;;;;;;;19.80;3.60;;;;;;;;;;5092274;28;20488;-71
2022/05/06 06:27:25;;;;;;;16.60;3.23;;;;;;;;;;5091997;28;20444;-71
2022/05/06 06:29:52;;;;;;;16.17;3.33;;;;;;;;;;5092239;28;20525;-71
2022/05/06 06:32:20;;;;;;;16.57;3.50;;;;;;;;;;5092766;28;20444;-71
2022/05/06 06:34:47;;;;;;;13.17;2.97;;;;;;;;;;5092489;28;20478;-71
2022/05/06 06:37:15;;;;;;;14.57;3.13;;;;;;;;;;5092019;28;21025;-71
2022/05/06 06:39:42;;;;;;;15.17;3.70;;;;;;;;;;5092218;28;21002;-71
2022/05/06 06:42:12;;;;;;;14.73;3.50;;;;;;;;;;5092909;28;20434;-71
2022/05/06 06:44:40;;;;;;;18.80;3.33;;;;;;;;;;5092150;28;20452;-71
2022/05/06 06:47:09;;;;;;;14.50;3.10;;;;;;;;;;5091990;28;20434;-71
2022/05/06 06:49:37;;;;;;;17.17;3.17;;;;;;;;;;5092237;28;20476;-70
2022/05/06 06:52:04;;;;;;;14.90;3.17;;;;;;;;;;5092070;28;20938;-71
2022/05/06 06:54:32;;;;;;;15.30;3.23;;;;;;;;;;5091820;28;20474;-71
2022/05/06 06:56:59;;;;;;;16.87;3.80;;;;;;;;;;5092086;28;20457;-71
2022/05/06 06:59:30;;;;;;;14.87;2.80;;;;;;;;;;5091659;28;20503;-71
2022/05/06 07:01:57;;;;;;;15.20;3.10;;;;;;;;;;5092023;28;20446;-70
2022/05/06 07:04:25;;;;;;;16.70;3.30;;;;;;;;;;5091789;28;20477;-71
2022/05/06 07:12:22;;;;;;;14.37;2.63;;;;;;;;;;5092027;28;20433;-71
2022/05/06 07:14:52;;;;;;;17.50;2.93;;;;;;;;;;5091773;28;20480;-70
2022/05/06 07:17:19;;;;;;;14.50;2.80;;;;;;;;;;5091666;28;20450;-71
2022/05/06 07:19:46;;;;;;;15.10;2.80;;;;;;;;;;5091589;28;20448;-70
2022/05/06 07:22:14;;;;;;;15.30;3.00;;;;;;;;;;5091591;28;20452;-70
2022/05/06 07:24:41;;;;;;;14.50;2.53;;;;;;;;;;5091495;28;20474;-70
2022/05/06 07:27:09;;;;;;;13.83;2.50;;;;;;;;;;5091915;28;20811;-70
2022/05/06 07:29:36;;;;;;;16.70;2.80;;;;;;;;;;5091678;28;20442;-70
2022/05/06 07:32:07;;;;;;;16.27;3.70;;;;;;;;;;5091576;28;20541;-70
2022/05/06 07:34:34;;;;;;;18.97;3.33;;;;;;;;;;5091435;28;20492;-70
2022/05/06 07:37:02;;;;;;;15.20;3.17;;;;;;;;;;5091688;28;20441;-71
2022/05/06 07:39:29;;;;;;;18.57;3.03;;;;;;;;;;5091202;28;20441;-71
2022/05/06 07:41:57;;;;;;;15.40;2.63;;;;;;;;;;5091429;28;20895;-70
2022/05/06 07:44:24;;;;;;;13.73;2.80;;;;;;;;;;5091401;28;20439;-71
2022/05/06 07:46:52;;;;;;;13.90;2.60;;;;;;;;;;5091892;28;20438;-70
2022/05/06 07:49:23;;;;;;;14.47;2.80;;;;;;;;;;5094430;28;20442;-70
2022/05/06 07:51:50;;;;;;;13.33;2.20;;;;;;;;;;5095426;28;20518;-71
2022/05/06 07:54:18;;;;;;;16.23;2.70;;;;;;;;;;5095099;28;20573;-71
2022/05/06 07:56:46;;;;;;;16.70;2.67;;;;;;;;;;5095248;28;20451;-71
2022/05/06 07:59:13;;;;;;;17.57;2.97;;;;;;;;;;5095574;28;20442;-70
2022/05/06 08:04:36;;;;;;;14.30;2.60;;;;;;;;;;5095132;28;20507;-70
2022/05/06 08:07:04;;;;;;;15.90;2.67;;;;;;;;;;5095086;28;20449;-70
2022/05/06 08:09:32;;;;;;;15.43;2.67;;;;;;;;;;5094721;28;20430;-70
2022/05/06 08:11:59;;;;;;;16.40;2.50;;;;;;;;;;5095655;28;20443;-70
2022/05/06 08:14:27;;;;;;;18.73;4.27;;;;;;;;;;5094916;28;20475;-70
2022/05/06 08:16:55;;;;;;;17.40;2.20;;;;;;;;;;5094905;28;20944;-70
2022/05/06 08:19:22;;;;;;;15.30;2.37;;;;;;;;;;5094791;28;20454;-70
2022/05/06 08:21:52;;;;;;;14.27;2.37;;;;;;;;;;5094686;28;20969;-70
2022/05/06 08:24:20;;;;;;;13.63;2.20;;;;;;;;;;5094846;28;20476;-70
2022/05/06 08:26:47;;;;;;;14.50;2.13;;;;;;;;;;5094635;28;20434;-70
2022/05/06 08:29:15;;;;;;;13.87;2.20;;;;;;;;;;5094725;28;20463;-70
2022/05/06 08:31:42;;;;;;;18.20;2.50;;;;;;;;;;5094817;28;20442;-70
2022/05/06 08:34:10;;;;;;;14.33;2.30;;;;;;;;;;5094628;28;20494;-70
2022/05/06 08:36:38;;;;;;;16.83;2.60;;;;;;;;;;5094850;28;20517;-70
2022/05/06 08:39:08;;;;;;;17.10;2.57;;;;;;;;;;5094806;28;20447;-70
2022/05/06 08:41:37;;;;;;;17.83;2.53;;;;;;;;;;5094305;28;20441;-70
2022/05/06 08:52:19;;;;;;;13.23;2.20;;;;;;;;;;5094383;28;20591;-70
2022/05/06 08:54:51;;;;;;;12.87;1.87;;;;;;;;;;5094080;28;20485;-70
2022/05/06 08:57:18;;;;;;;20.63;2.40;;;;;;;;;;5093870;28;20500;-71
2022/05/06 08:59:50;;;;;;;17.90;2.30;;;;;;;;;;5093012;28;20816;-71
2022/05/06 09:02:18;;;;;;;21.53;2.10;;;;;;;;;;5094735;28;20476;-71
2022/05/06 09:04:45;;;;;;;16.90;2.30;;;;;;;;;;5094026;28;20463;-71
2022/05/06 09:07:19;;;;;;;12.40;1.83;;;;;;;;;;5093619;28;20438;-71
2022/05/06 09:10:07;;;;;;;13.23;2.13;;;;;;;;;;5094308;28;20414;-71
2022/05/06 09:12:41;;;;;;;12.77;2.03;;;;;;;;;;5093721;28;20438;-71
2022/05/06 09:17:55;;;;;;;14.00;2.10;;;;;;;;;;5093701;28;20427;-71
2022/05/06 09:20:23;;;;;;;16.17;2.40;;;;;;;;;;5093855;28;20441;-71
2022/05/06 09:22:51;;;;;;;13.73;2.20;;;;;;;;;;5093407;28;20468;-71
2022/05/06 09:25:36;;;;;;;13.90;1.93;;;;;;;;;;5093318;28;20446;-71
2022/05/06 09:28:05;;;;;;;13.63;2.20;;;;;;;;;;5093504;28;20441;-71
2022/05/06 09:30:33;;;;;;;16.20;2.60;;;;;;;;;;5093325;28;20441;-71
2022/05/06 09:33:00;;;;;;;12.77;1.97;;;;;;;;;;5093353;28;20965;-70
2022/05/06 09:35:28;;;;;;;14.90;2.20;;;;;;;;;;5093264;28;20470;-71
2022/05/06 09:37:56;;;;;;;15.63;2.40;;;;;;;;;;5093238;28;20482;-71
2022/05/06 09:40:29;;;;;;;14.70;2.40;;;;;;;;;;5093144;28;20525;-71
2022/05/06 09:43:00;;;;;;;17.70;2.10;;;;;;;;;;5093246;28;20435;-71
2022/05/06 09:45:33;;;;;;;14.00;2.17;;;;;;;;;;5093161;28;20445;-70
2022/05/06 09:48:01;;;;;;;13.80;1.90;;;;;;;;;;5093220;28;20448;-71
2022/05/06 09:50:32;;;;;;;12.97;2.00;;;;;;;;;;5092986;28;20477;-71
2022/05/06 09:53:00;;;;;;;15.97;2.10;;;;;;;;;;5093079;28;20438;-71
2022/05/06 09:55:30;;;;;;;14.13;2.40;;;;;;;;;;5092536;28;20534;-70
2022/05/06 09:57:59;;;;;;;19.63;2.47;;;;;;;;;;5092799;28;20442;-71
2022/05/06 10:00:27;;;;;;;14.30;2.73;;;;;;;;;;5092841;28;20436;-72
2022/05/06 10:02:56;;;;;;;15.57;3.50;;;;;;;;;;5092932;28;20441;-71
2022/05/06 10:05:24;;;;;;;14.70;2.00;;;;;;;;;;5092657;28;20446;-71
2022/05/06 10:07:53;;;;;;;13.80;2.10;;;;;;;;;;5092588;28;20965;-72
2022/05/06 10:10:22;;;;;;;15.67;2.50;;;;;;;;;;5092445;28;20438;-72
2022/05/06 10:12:56;;;;;;;16.33;2.50;;;;;;;;;;5092580;28;20447;-72
2022/05/06 10:15:24;;;;;;;15.10;2.23;;;;;;;;;;5092446;28;20478;-71
2022/05/06 10:17:53;;;;;;;12.90;2.00;;;;;;;;;;5092866;28;20443;-71
2022/05/06 10:20:51;;;;;;;12.90;2.33;;;;;;;;;;5092396;28;20470;-71
2022/05/06 10:23:21;;;;;;;14.30;1.90;;;;;;;;;;5029928;28;20480;-71
2022/05/06 10:25:49;;;;;;;16.57;2.40;;;;;;;;;;5079528;28;20445;-71
2022/05/06 10:34:30;;;;;;;15.40;2.47;;;;;;;;;;5055916;28;20435;-71
2022/05/06 10:37:00;;;;;;;12.20;1.80;;;;;;;;;;5092174;28;20460;-71
2022/05/06 10:39:30;;;;;;;13.17;1.83;;;;;;;;;;5092005;28;20434;-71
2022/05/06 10:42:01;;;;;;;13.40;2.00;;;;;;;;;;5092440;28;20441;-71
2022/05/06 10:44:41;;;;;;;13.97;2.20;;;;;;;;;;5092569;28;20439;-71
2022/05/06 10:47:41;;;;;;;13.20;2.10;;;;;;;;;;5092107;28;20473;-71
2022/05/06 10:50:15;;;;;;;16.57;2.30;;;;;;;;;;5092129;28;20438;-71
2022/05/06 10:52:46;;;;;;;16.10;2.13;;;;;;;;;;5092362;28;20472;-71
2022/05/06 10:55:16;;;;;;;13.83;2.40;;;;;;;;;;5091913;28;20478;-72
2022/05/06 10:58:00;;;;;;;13.70;2.20;;;;;;;;;;5091913;28;20824;-72
2022/05/06 11:00:29;;;;;;;14.20;2.40;;;;;;;;;;5091932;28;20445;-71
2022/05/06 11:02:59;;;;;;;13.97;2.30;;;;;;;;;;5092016;28;20438;-71
2022/05/06 11:05:29;;;;;;;14.70;2.20;;;;;;;;;;5091712;28;20506;-72
2022/05/06 11:07:58;;;;;;;13.10;1.90;;;;;;;;;;5091971;28;20851;-70
2022/05/06 11:10:28;;;;;;;12.90;2.00;;;;;;;;;;5091679;28;20469;-70
2022/05/06 11:12:57;;;;;;;14.47;2.10;;;;;;;;;;5091801;28;20437;-70
2022/05/06 11:15:25;;;;;;;19.73;2.53;;;;;;;;;;5091493;28;20474;-70
2022/05/06 11:17:56;;;;;;;15.53;2.10;;;;;;;;;;5092144;28;20426;-71
2022/05/06 11:20:26;;;;;;;23.60;3.00;;;;;;;;;;5092050;28;20446;-72
2022/05/06 11:22:57;;;;;;;14.27;2.73;;;;;;;;;;5092491;28;20424;-72
2022/05/06 11:25:25;;;;;;;14.43;2.20;;;;;;;;;;5095890;28;20530;-72
2022/05/06 11:27:55;;;;;;;15.13;2.47;;;;;;;;;;5095785;28;20442;-72
2022/05/06 11:30:23;;;;;;;13.33;1.93;;;;;;;;;;5095849;28;20435;-73
2022/05/06 11:32:52;;;;;;;12.50;2.07;;;;;;;;;;5096135;28;21000;-71
2022/05/06 11:35:21;;;;;;;16.90;2.50;;;;;;;;;;5095269;28;20481;-72
2022/05/06 11:37:49;;;;;;;21.93;2.80;;;;;;;;;;5095768;28;20955;-72
2022/05/06 11:40:36;;;;;;;13.93;2.30;;;;;;;;;;5095509;28;20443;-73
2022/05/06 11:43:06;;;;;;;16.40;2.60;;;;;;;;;;5096202;28;20442;-72
2022/05/06 11:48:21;;;;;;;13.60;2.10;;;;;;;;;;5095853;28;20820;-72
2022/05/06 11:51:00;;;;;;;17.50;2.30;;;;;;;;;;5095371;28;20452;-71
2022/05/06 11:53:27;;;;;;;13.10;2.00;;;;;;;;;;5095285;28;20444;-72
2022/05/06 11:55:56;;;;;;;13.77;2.00;;;;;;;;;;5095130;28;20477;-72
2022/05/06 11:58:26;;;;;;;13.77;2.73;;;;;;;;;;5095245;28;20446;-73
2022/05/06 12:00:54;;;;;;;12.77;1.97;;;;;;;;;;5095138;28;20431;-72
2022/05/06 12:03:21;;;;;;;13.50;2.17;;;;;;;;;;5094784;28;20466;-72
2022/05/06 12:06:02;;;;;;;14.07;2.33;;;;;;;;;;5095245;28;20472;-72
2022/05/06 12:08:32;;;;;;;15.80;2.50;;;;;;;;;;5095060;28;20939;-72
2022/05/06 12:11:00;;;;;;;14.63;2.70;;;;;;;;;;5094987;28;20870;-72
2022/05/06 12:13:33;;;;;;;13.00;2.17;;;;;;;;;;5094683;28;20449;-72
2022/05/06 12:16:06;;;;;;;12.90;2.10;;;;;;;;;;5094896;28;20473;-72
2022/05/06 12:18:33;;;;;;;14.20;2.10;;;;;;;;;;5094857;28;20503;-72
2022/05/06 12:21:01;;;;;;;13.67;2.20;;;;;;;;;;5094981;28;20437;-70
2022/05/06 12:23:30;;;;;;;15.07;2.10;;;;;;;;;;5094398;28;20530;-70
2022/05/06 12:25:59;;;;;;;13.57;1.70;;;;;;;;;;5094787;28;20507;-70
2022/05/06 12:28:28;;;;;;;18.83;1.90;;;;;;;;;;5094744;28;20438;-69
2022/05/06 12:31:00;;;;;;;13.80;2.27;;;;;;;;;;5094595;28;20475;-70
2022/05/06 12:33:37;;;;;;;13.87;1.93;;;;;;;;;;5094543;28;20467;-70
2022/05/06 12:36:05;;;;;;;14.90;3.10;;;;;;;;;;5094886;28;20469;-70
2022/05/06 12:38:47;;;;;;;12.53;1.90;;;;;;;;;;5094473;28;20446;-70
2022/05/06 12:41:20;;;;;;;13.27;1.97;;;;;;;;;;5094361;28;20449;-70
2022/05/06 12:43:48;;;;;;;17.37;2.63;;;;;;;;;;5094424;28;20956;-70
2022/05/06 12:46:27;;;;;;;15.33;2.00;;;;;;;;;;5094148;28;20446;-70
2022/05/06 12:51:48;;;;;;;12.17;1.63;;;;;;;;;;5057895;28;20438;-70
2022/05/06 12:54:15;;;;;;;13.60;2.07;;;;;;;;;;5094320;28;20846;-70
2022/05/06 12:56:43;;;;;;;14.03;1.97;;;;;;;;;;5094025;28;20510;-70
2022/05/06 12:59:11;;;;;;;14.23;2.13;;;;;;;;;;5093806;28;20523;-70
2022/05/06 13:01:40;;;;;;;14.93;2.30;;;;;;;;;;5094242;28;20446;-70
2022/05/06 13:04:07;;;;;;;13.63;1.87;;;;;;;;;;5093858;28;20476;-70
2022/05/06 13:06:35;;;;;;;13.73;1.70;;;;;;;;;;5094205;28;20449;-70
2022/05/06 13:09:02;;;;;;;14.70;2.40;;;;;;;;;;5093782;28;20442;-71
2022/05/06 13:11:30;;;;;;;15.73;1.90;;;;;;;;;;5093519;28;20457;-70
2022/05/06 13:13:59;;;;;;;14.27;2.20;;;;;;;;;;5093782;28;20446;-72
2022/05/06 13:16:26;;;;;;;13.17;1.90;;;;;;;;;;5093852;28;20557;-72
2022/05/06 13:18:55;;;;;;;13.57;1.90;;;;;;;;;;5093655;28;20447;-72
2022/05/06 13:21:23;;;;;;;13.03;1.90;;;;;;;;;;5093435;28;20449;-72
2022/05/06 13:23:50;;;;;;;13.67;1.90;;;;;;;;;;5093696;28;20478;-72
2022/05/06 13:26:18;;;;;;;16.07;2.20;;;;;;;;;;5093880;28;20515;-72
2022/05/06 13:28:45;;;;;;;15.10;2.60;;;;;;;;;;5093361;28;20493;-72
2022/05/06 13:31:13;;;;;;;14.40;2.20;;;;;;;;;;5093347;28;20453;-71
2022/05/06 13:33:41;;;;;;;12.40;1.90;;;;;;;;;;5093524;28;20435;-72
2022/05/06 13:36:12;;;;;;;18.93;2.30;;;;;;;;;;5093108;28;20482;-72
2022/05/06 13:38:39;;;;;;;15.23;2.43;;;;;;;;;;5093307;28;20423;-72
2022/05/06 13:41:07;;;;;;;13.30;2.47;;;;;;;;;;5093166;28;20446;-72
2022/05/06 13:43:34;;;;;;;14.27;2.07;;;;;;;;;;5093019;28;20438;-72
2022/05/06 13:46:02;;;;;;;13.43;1.73;;;;;;;;;;5092460;28;20446;-72
2022/05/06 13:48:30;;;;;;;15.50;2.37;;;;;;;;;;5093078;28;20442;-71
2022/05/06 13:50:58;;;;;;;14.60;2.20;;;;;;;;;;5092965;28;20449;-72
2022/05/06 13:53:27;;;;;;;13.70;2.37;;;;;;;;;;5092767;28;20446;-72
2022/05/06 14:01:24;;;;;;;13.23;2.03;;;;;;;;;;5092743;28;20455;-72
2022/05/06 14:03:53;;;;;;;13.97;2.67;;;;;;;;;;5093114;28;20829;-71
2022/05/06 14:06:21;;;;;;;17.10;2.30;;;;;;;;;;5093564;28;20452;-72
2022/05/06 14:08:49;;;;;;;14.43;2.63;;;;;;;;;;5092840;28;20445;-71
2022/05/06 14:11:18;;;;;;;13.27;2.50;;;;;;;;;;5092508;28;20444;-72
2022/05/06 14:13:45;;;;;;;25.87;7.20;;;;;;;;;;5092703;28;20562;-72
2022/05/06 14:16:12;;;;;;;17.30;3.60;;;;;;;;;;5092677;28;20484;-72
2022/05/06 14:18:40;;;;;;;16.07;5.03;;;;;;;;;;5092841;28;20441;-72
2022/05/06 14:21:09;;;;;;;23.10;11.07;;;;;;;;;;5092498;28;20430;-72
2022/05/06 14:23:36;;;;;;;15.77;3.73;;;;;;;;;;5092570;28;20479;-72
2022/05/06 14:26:05;;;;;;;17.57;4.10;;;;;;;;;;5092463;28;20977;-71
2022/05/06 14:28:32;;;;;;;15.00;2.93;;;;;;;;;;5092462;28;20440;-72
2022/05/06 14:31:00;;;;;;;14.00;2.03;;;;;;;;;;5092676;28;20520;-72
2022/05/06 14:33:27;;;;;;;15.30;3.10;;;;;;;;;;5092328;28;20524;-72
2022/05/06 14:35:54;;;;;;;14.50;2.20;;;;;;;;;;5092312;28;20487;-72
2022/05/06 14:38:23;;;;;;;14.60;2.30;;;;;;;;;;5092388;28;20807;-72
2022/05/06 14:40:51;;;;;;;13.90;2.60;;;;;;;;;;5092101;28;20887;-72
2022/05/06 14:43:19;;;;;;;14.70;2.40;;;;;;;;;;5092111;28;20448;-72
2022/05/06 14:45:47;;;;;;;14.70;2.30;;;;;;;;;;5092367;28;20446;-72
2022/05/06 14:48:14;;;;;;;15.70;2.50;;;;;;;;;;5092046;28;20443;-72
2022/05/06 14:50:42;;;;;;;16.77;2.10;;;;;;;;;;5092634;28;20442;-72
2022/05/06 14:53:09;;;;;;;13.67;2.13;;;;;;;;;;5091920;28;20442;-72
2022/05/06 14:55:36;;;;;;;19.13;2.57;;;;;;;;;;5091831;28;20447;-72
2022/05/06 14:58:04;;;;;;;14.93;2.23;;;;;;;;;;5090912;28;20821;-72
2022/05/06 15:00:33;;;;;;;12.60;1.83;;;;;;;;;;5091861;28;20449;-72
2022/05/06 15:03:00;;;;;;;14.07;1.97;;;;;;;;;;5092119;28;20430;-72
2022/05/06 15:05:28;;;;;;;14.60;2.27;;;;;;;;;;5091854;28;20451;-72
2022/05/06 15:07:55;;;;;;;14.90;1.93;;;;;;;;;;5091704;28;20448;-72
2022/05/06 15:10:22;;;;;;;13.73;2.17;;;;;;;;;;5091977;28;20456;-72
2022/05/06 15:12:50;;;;;;;14.90;2.10;;;;;;;;;;5091908;28;20452;-72
2022/05/06 15:15:18;;;;;;;15.17;2.40;;;;;;;;;;5091548;28;20831;-71
2022/05/06 15:17:47;;;;;;;12.77;2.00;;;;;;;;;;5091567;28;20483;-72
2022/05/06 15:20:14;;;;;;;15.87;3.10;;;;;;;;;;5091745;28;20451;-72
2022/05/06 15:22:41;;;;;;;15.40;2.40;;;;;;;;;;5091196;28;20789;-72
2022/05/06 15:25:09;;;;;;;15.43;2.57;;;;;;;;;;5092075;28;20430;-72
2022/05/06 15:27:36;;;;;;;14.93;2.70;;;;;;;;;;5091590;28;20964;-72
2022/05/06 15:30:05;;;;;;;17.17;2.40;;;;;;;;;;5091563;28;20441;-72
2022/05/06 15:32:32;;;;;;;17.73;2.33;;;;;;;;;;5091733;28;20447;-71
2022/05/06 15:35:01;;;;;;;16.57;2.13;;;;;;;;;;5091385;28;20957;-72
2022/05/06 15:37:28;;;;;;;16.30;2.83;;;;;;;;;;5091386;28;20507;-71